Terminal Aerodrome Forecast
Issued by NWS Binghamton, NY

Home | Current Version | Previous Version | Text Only | Print | Product List | Glossary On
Versions: 1 2 3 4 5 6 7 8 9 10 11 12 13 14 15 16 17
000
FTUS41 KBGM 201139
TAFBGM
TAF
KBGM 201139Z 2012/2112 27004KT P6SM SKC
     FM201700 28007KT P6SM BKN200
      TEMPO 2100/2103 5SM -TSRA BKN040CB
     FM210400 23005KT P6SM BKN030
     FM210700 27004KT 4SM BR BKN100=

USA.gov is the U.S. government's official web portal to all federal, state and local government web resources and services.